Time;durP1;ratioP1;P1;durP2;ratioP2;P2;SDS_P1;SDS_P2;PMS_P1;PMS_P2;Temp;Humidity;BMP_temperature;BMP_pressure;BME280_temperature;BME280_humidity;BME280_pressure;Samples;Min_cycle;Max_cycle;Signal;HPM_P1;HPM_P2
2022/07/05 00:00:42;;;;;;;6.80;3.72;;;;;;;17.32;100.00;102106.50;5106380;28;20058;-71
2022/07/05 00:03:08;;;;;;;8.93;3.30;;;;;;;17.42;100.00;102108.38;5105380;28;20034;-70
2022/07/05 00:05:34;;;;;;;5.90;2.55;;;;;;;17.38;100.00;102106.56;5104438;28;20028;-72
2022/07/05 00:07:59;;;;;;;4.70;2.60;;;;;;;17.28;100.00;102102.03;5097609;28;20450;-71
2022/07/05 00:10:25;;;;;;;4.93;2.20;;;;;;;17.12;100.00;102098.34;5107484;28;20103;-71
2022/07/05 00:12:50;;;;;;;5.00;2.70;;;;;;;17.02;100.00;102090.28;5103182;28;20064;-71
2022/07/05 00:15:15;;;;;;;3.75;2.97;;;;;;;16.96;100.00;102092.88;5099532;28;20023;-71
2022/07/05 00:17:41;;;;;;;6.57;3.03;;;;;;;17.00;100.00;102105.34;5105357;28;20118;-72
2022/07/05 00:20:07;;;;;;;6.32;3.00;;;;;;;17.04;100.00;102111.59;5101509;28;20036;-71
2022/07/05 00:22:32;;;;;;;9.32;3.08;;;;;;;17.04;100.00;102106.25;5089136;28;20031;-72
2022/07/05 00:24:57;;;;;;;8.68;3.35;;;;;;;17.02;100.00;102103.59;5099437;28;20085;-71
2022/07/05 00:27:23;;;;;;;7.88;2.90;;;;;;;17.01;100.00;102103.56;5090726;28;20065;-71
2022/07/05 00:29:48;;;;;;;10.35;3.13;;;;;;;17.03;100.00;102107.13;5105337;28;20054;-71
2022/07/05 00:32:13;;;;;;;4.97;2.80;;;;;;;16.97;100.00;102099.06;5101073;28;20482;-72
2022/07/05 00:34:39;;;;;;;6.10;2.67;;;;;;;16.86;100.00;102104.25;5104950;28;20032;-71
2022/07/05 00:37:04;;;;;;;6.43;3.00;;;;;;;16.79;100.00;102105.06;5104894;28;20023;-72
2022/07/05 00:39:29;;;;;;;5.82;3.05;;;;;;;16.79;100.00;102099.75;5101392;28;20024;-72
2022/07/05 00:41:55;;;;;;;4.63;3.00;;;;;;;16.71;100.00;102107.63;5106854;28;20478;-71
2022/07/05 00:44:35;;;;;;;6.35;2.85;;;;;;;16.66;100.00;102104.06;5113491;28;20368;-72
2022/07/05 00:47:02;;;;;;;5.47;3.05;;;;;;;16.64;100.00;102093.41;5113505;28;20479;-71
2022/07/05 00:49:28;;;;;;;5.50;2.90;;;;;;;16.61;100.00;102105.75;5106583;28;20035;-71
2022/07/05 00:51:54;;;;;;;5.68;3.00;;;;;;;16.58;100.00;102106.59;5108743;28;20514;-72
2022/07/05 00:54:20;;;;;;;6.55;2.58;;;;;;;16.56;100.00;102110.13;5108889;28;20023;-72
2022/07/05 00:56:45;;;;;;;5.25;3.03;;;;;;;16.49;100.00;102104.75;5116861;28;20416;-71
2022/07/05 00:59:11;;;;;;;3.85;3.05;;;;;;;16.43;100.00;102102.00;5105920;28;20047;-71
2022/07/05 01:01:36;;;;;;;4.93;2.92;;;;;;;16.41;100.00;102103.72;5113046;28;20172;-71
2022/07/05 01:04:01;;;;;;;7.45;3.38;;;;;;;16.37;100.00;102099.25;5114147;28;20034;-71
2022/07/05 01:06:27;;;;;;;9.45;2.97;;;;;;;16.35;100.00;102103.66;5111348;28;20076;-72
2022/07/05 01:08:52;;;;;;;4.50;3.10;;;;;;;16.40;100.00;102101.97;5104171;28;20463;-72
2022/07/05 01:11:17;;;;;;;3.38;2.65;;;;;;;16.36;100.00;102094.84;5104728;28;20028;-72
2022/07/05 01:13:43;;;;;;;10.05;3.17;;;;;;;16.24;100.00;102094.69;5114263;28;20115;-70
2022/07/05 01:16:09;;;;;;;5.72;3.17;;;;;;;16.11;100.00;102099.81;5112081;28;20076;-71
2022/07/05 01:18:35;;;;;;;5.95;3.10;;;;;;;16.04;100.00;102111.22;5107126;28;20047;-72
2022/07/05 01:21:02;;;;;;;5.28;3.08;;;;;;;16.00;100.00;102112.91;5101018;28;20142;-71
2022/07/05 01:23:31;;;;;;;4.85;2.95;;;;;;;15.96;100.00;102107.56;5104588;28;20027;-71
2022/07/05 01:26:02;;;;;;;7.10;3.00;;;;;;;15.96;100.00;102104.91;5108804;28;20099;-72
2022/07/05 01:28:28;;;;;;;4.00;3.42;;;;;;;15.99;100.00;102105.84;5105724;28;20418;-71
2022/07/05 01:30:53;;;;;;;5.75;3.40;;;;;;;16.03;100.00;102101.47;5107894;28;20418;-71
2022/07/05 01:33:19;;;;;;;7.60;3.60;;;;;;;15.98;100.00;102108.50;5112108;28;20027;-71
2022/07/05 01:35:45;;;;;;;6.35;3.58;;;;;;;15.96;100.00;102105.78;5114205;28;20032;-71
2022/07/05 01:38:11;;;;;;;4.38;3.45;;;;;;;15.95;100.00;102113.72;5113006;28;20026;-71
2022/07/05 01:40:37;;;;;;;5.85;3.42;;;;;;;15.91;100.00;102106.59;5091796;28;20529;-71
2022/07/05 01:43:03;;;;;;;5.35;3.85;;;;;;;15.87;100.00;102102.09;5106246;28;20031;-71
2022/07/05 01:45:41;;;;;;;5.10;3.00;;;;;;;15.85;100.00;102105.63;5105663;28;20053;-71
2022/07/05 01:48:12;;;;;;;5.75;3.63;;;;;;;15.77;100.00;102104.59;5095666;28;20101;-71
2022/07/05 01:51:08;;;;;;;6.07;3.70;;;;;;;15.77;100.00;102096.63;5105082;28;20101;-71
2022/07/05 01:53:33;;;;;;;6.00;3.47;;;;;;;15.76;100.00;102107.22;5109674;28;20047;-71
2022/07/05 01:56:03;;;;;;;5.85;3.58;;;;;;;15.68;100.00;102104.44;5105451;28;20023;-71
2022/07/05 01:58:30;;;;;;;7.13;3.50;;;;;;;15.69;100.00;102103.56;5112523;28;20120;-72
2022/07/05 02:00:57;;;;;;;5.22;3.63;;;;;;;15.59;100.00;102097.25;5104637;28;20020;-71
2022/07/05 02:03:23;;;;;;;5.45;3.72;;;;;;;15.52;100.00;102093.59;5112656;28;20122;-71
2022/07/05 02:05:49;;;;;;;5.53;3.90;;;;;;;15.46;100.00;102109.44;5109795;28;20056;-71
2022/07/05 02:08:16;;;;;;;6.85;4.38;;;;;;;15.44;100.00;102104.97;5099733;28;20028;-70
2022/07/05 02:10:42;;;;;;;6.43;4.32;;;;;;;15.44;100.00;102115.56;5103930;28;20451;-70
2022/07/05 02:13:09;;;;;;;5.35;4.10;;;;;;;15.46;100.00;102114.75;5112229;28;20387;-71
2022/07/05 02:15:36;;;;;;;9.95;4.57;;;;;;;15.43;100.00;102109.34;5112707;28;20429;-72
2022/07/05 02:18:03;;;;;;;9.95;5.22;;;;;;;15.39;100.00;102112.81;5111564;28;20024;-71
2022/07/05 02:20:30;;;;;;;7.88;4.32;;;;;;;15.36;100.00;102110.13;5087072;28;20080;-71
2022/07/05 02:22:56;;;;;;;10.70;5.25;;;;;;;15.45;100.00;102110.28;5092036;28;20161;-71
2022/07/05 02:25:21;;;;;;;5.50;3.90;;;;;;;15.38;100.00;102108.38;5110601;28;20028;-72
2022/07/05 02:27:47;;;;;;;4.50;4.03;;;;;;;15.29;100.00;102106.47;5113113;28;20121;-71
2022/07/05 02:30:13;;;;;;;6.30;4.78;;;;;;;15.34;100.00;102106.53;5106126;28;20032;-71
2022/07/05 02:32:38;;;;;;;6.10;4.30;;;;;;;15.31;100.00;102104.75;5104592;28;20015;-71
2022/07/05 02:35:05;;;;;;;7.60;4.68;;;;;;;15.31;100.00;102106.50;5113759;28;20036;-71
2022/07/05 02:37:30;;;;;;;6.88;4.20;;;;;;;15.25;100.00;102106.41;5104351;28;20444;-71
2022/07/05 02:39:56;;;;;;;6.88;4.47;;;;;;;15.23;100.00;102116.06;5106509;28;20106;-71
2022/07/05 02:42:21;;;;;;;4.82;4.40;;;;;;;15.23;100.00;102106.34;5111660;28;20055;-71
2022/07/05 02:44:47;;;;;;;8.95;3.95;;;;;;;15.36;100.00;102107.47;5093841;28;20042;-72
2022/07/05 02:47:12;;;;;;;4.47;3.67;;;;;;;15.36;100.00;102107.47;5097736;28;20032;-71
2022/07/05 02:49:37;;;;;;;5.65;3.92;;;;;;;15.37;100.00;102109.28;5097697;28;20028;-71
2022/07/05 02:52:03;;;;;;;5.07;3.53;;;;;;;15.42;100.00;102104.91;5105388;28;20520;-72
2022/07/05 02:54:28;;;;;;;5.13;3.83;;;;;;;15.46;100.00;102109.44;5109513;28;20383;-71
2022/07/05 02:56:54;;;;;;;8.15;4.45;;;;;;;15.45;100.00;102110.28;5105868;28;20016;-71
2022/07/05 02:59:19;;;;;;;7.45;4.35;;;;;;;15.48;100.00;102107.69;5098241;28;20395;-71
2022/07/05 03:01:44;;;;;;;5.90;4.38;;;;;;;15.49;100.00;102112.13;5100160;28;20683;-71
2022/07/05 03:04:10;;;;;;;4.97;4.07;;;;;;;15.56;100.00;102110.47;5102658;28;20031;-71
2022/07/05 03:06:36;;;;;;;7.25;3.90;;;;;;;15.58;100.00;102110.50;5112028;28;20474;-70
2022/07/05 03:09:01;;;;;;;4.88;4.05;;;;;;;15.58;100.00;102110.50;5097004;28;20468;-72
2022/07/05 03:11:27;;;;;;;5.18;4.20;;;;;;;15.52;100.00;102117.47;5103505;28;20030;-71
2022/07/05 03:13:52;;;;;;;7.97;4.93;;;;;;;15.54;100.00;102112.19;5105059;28;20386;-71
2022/07/05 03:16:17;;;;;;;7.30;4.40;;;;;;;15.56;100.00;102109.56;5097806;28;20025;-71
2022/07/05 03:18:43;;;;;;;6.82;4.38;;;;;;;15.56;100.00;102106.91;5109634;28;20059;-70
2022/07/05 03:21:08;;;;;;;5.57;3.70;;;;;;;15.55;100.00;102118.41;5079788;28;20028;-71
2022/07/05 03:23:33;;;;;;;5.22;4.05;;;;;;;15.53;100.00;102121.00;5100010;28;20020;-70
2022/07/05 03:25:59;;;;;;;5.45;4.43;;;;;;;15.51;100.00;102118.31;5112035;28;20024;-71
2022/07/05 03:28:24;;;;;;;6.45;4.30;;;;;;;15.51;100.00;102122.75;5112306;28;20035;-71
2022/07/05 03:30:49;;;;;;;6.18;4.57;;;;;;;15.54;100.00;102122.78;5110609;28;20031;-71
2022/07/05 03:33:15;;;;;;;7.05;4.25;;;;;;;15.54;100.00;102122.78;5108700;28;20023;-71
2022/07/05 03:35:40;;;;;;;5.05;4.50;;;;;;;15.55;100.00;102132.56;5098580;28;20035;-70
2022/07/05 03:38:05;;;;;;;5.97;4.50;;;;;;;15.54;100.00;102132.53;5112891;28;20027;-72
2022/07/05 03:40:31;;;;;;;11.15;5.10;;;;;;;15.51;100.00;102128.94;5105527;28;20023;-71
2022/07/05 03:42:56;;;;;;;10.90;4.82;;;;;;;15.54;100.00;102133.41;5106821;28;20024;-71
2022/07/05 03:45:21;;;;;;;7.30;4.72;;;;;;;15.54;100.00;102129.88;5102951;28;20035;-72
2022/07/05 03:47:47;;;;;;;6.53;4.85;;;;;;;15.68;100.00;102125.66;5105881;28;20031;-70
2022/07/05 03:50:12;;;;;;;9.25;4.95;;;;;;;15.74;100.00;102120.47;5110773;28;20054;-73
2022/07/05 03:52:37;;;;;;;8.13;5.50;;;;;;;15.71;100.00;102124.81;5099534;28;20106;-70
2022/07/05 03:55:03;;;;;;;8.88;5.07;;;;;;;15.70;100.00;102123.94;5109046;28;20027;-71
2022/07/05 03:57:29;;;;;;;8.45;5.10;;;;;;;15.75;100.00;102127.56;5110719;28;20099;-71
2022/07/05 03:59:54;;;;;;;9.63;5.47;;;;;;;15.74;100.00;102128.44;5111056;28;20072;-71
2022/07/05 04:02:19;;;;;;;6.10;5.25;;;;;;;15.72;100.00;102118.66;5078224;28;20016;-71
2022/07/05 04:04:45;;;;;;;8.18;5.57;;;;;;;15.73;100.00;102129.28;5103534;28;20034;-71
2022/07/05 04:07:10;;;;;;;8.73;5.20;;;;;;;15.74;100.00;102128.44;5109471;28;20028;-71
2022/07/05 04:09:35;;;;;;;10.45;5.65;;;;;;;15.75;100.00;102142.59;5113093;28;20106;-71
2022/07/05 04:12:01;;;;;;;9.75;4.93;;;;;;;15.75;100.00;102131.97;5106758;28;20020;-71
2022/07/05 04:14:26;;;;;;;13.02;6.22;;;;;;;15.74;100.00;102140.81;5102010;28;20059;-71
2022/07/05 04:16:51;;;;;;;10.93;5.63;;;;;;;15.69;100.00;102140.72;5098074;28;20227;-70
2022/07/05 04:19:17;;;;;;;6.97;5.60;;;;;;;15.67;100.00;102139.81;5103587;28;20123;-71
2022/07/05 04:21:42;;;;;;;6.63;5.47;;;;;;;15.67;100.00;102146.00;5109358;28;20501;-71
2022/07/05 04:24:08;;;;;;;8.77;6.32;;;;;;;15.62;100.00;102146.81;5110525;28;20035;-70
2022/07/05 04:26:33;;;;;;;10.45;5.72;;;;;;;15.55;100.00;102142.28;5107987;28;20024;-71
2022/07/05 04:28:58;;;;;;;9.13;5.72;;;;;;;15.48;100.00;102144.81;5112534;28;20034;-73
2022/07/05 04:31:24;;;;;;;6.43;5.43;;;;;;;15.48;100.00;102139.50;5107103;28;20024;-70
2022/07/05 04:33:50;;;;;;;8.70;5.80;;;;;;;15.47;100.00;102140.38;5109923;28;20020;-70
2022/07/05 04:36:15;;;;;;;8.15;5.60;;;;;;;15.47;100.00;102148.31;5106271;28;20103;-71
2022/07/05 04:38:41;;;;;;;9.48;6.32;;;;;;;15.50;100.00;102147.50;5112653;28;20489;-71
2022/07/05 04:41:06;;;;;;;10.73;5.57;;;;;;;15.49;100.00;102143.97;5111805;28;20024;-71
2022/07/05 04:43:33;;;;;;;6.28;5.50;;;;;;;15.49;100.00;102141.31;5106236;28;20027;-72
2022/07/05 04:45:59;;;;;;;8.15;5.70;;;;;;;15.52;100.00;102144.00;5100083;28;20051;-71
2022/07/05 04:48:24;;;;;;;6.13;5.40;;;;;;;15.55;100.00;102147.59;5105626;28;20062;-71
2022/07/05 04:50:49;;;;;;;9.15;6.50;;;;;;;15.56;100.00;102146.69;5112975;28;20060;-71
2022/07/05 04:53:15;;;;;;;10.02;6.40;;;;;;;15.61;100.00;102151.25;5110661;28;20037;-72
2022/07/05 04:55:40;;;;;;;11.10;6.78;;;;;;;15.63;100.00;102143.31;5115944;28;20023;-72
2022/07/05 04:58:06;;;;;;;14.85;6.38;;;;;;;15.67;100.00;102150.44;5107119;28;20077;-70
2022/07/05 05:00:31;;;;;;;8.88;6.30;;;;;;;15.72;100.00;102154.06;5112708;28;20027;-72
2022/07/05 05:02:56;;;;;;;14.65;6.65;;;;;;;15.79;100.00;102153.28;5111076;28;20024;-71
2022/07/05 05:05:22;;;;;;;10.77;6.35;;;;;;;15.93;100.00;102156.19;5102534;28;20058;-71
2022/07/05 05:07:47;;;;;;;8.52;7.28;;;;;;;16.06;100.00;102159.94;5114450;28;20155;-72
2022/07/05 05:10:12;;;;;;;12.13;7.05;;;;;;;16.20;100.00;102152.16;5110471;28;20050;-72
2022/07/05 05:12:38;;;;;;;10.07;6.65;;;;;;;16.32;100.00;102147.03;5111128;28;20191;-71
2022/07/05 05:15:08;;;;;;;9.05;5.72;;;;;;;16.40;100.00;102152.44;5109461;28;20036;-72
2022/07/05 05:17:38;;;;;;;8.40;5.43;;;;;;;16.48;100.00;102147.22;5111025;28;20027;-71
2022/07/05 05:20:17;;;;;;;9.40;5.60;;;;;;;16.58;100.00;102157.09;5109633;28;20027;-70
2022/07/05 05:22:43;;;;;;;7.47;5.53;;;;;;;16.68;100.00;102160.75;5090773;28;20027;-71
2022/07/05 05:25:10;;;;;;;8.30;4.45;;;;;;;16.75;100.00;102165.25;5101549;28;20540;-70
2022/07/05 05:27:40;;;;;;;6.95;4.10;;;;;;;16.83;100.00;102163.63;5109118;28;20031;-71
2022/07/05 05:30:06;;;;;;;4.90;3.40;;;;;;;16.89;100.00;102168.16;5104657;28;20030;-71
2022/07/05 05:32:32;;;;;;;9.43;3.92;;;;;;;16.98;100.00;102164.69;5114518;28;20035;-70
2022/07/05 05:34:57;;;;;;;4.97;3.67;;;;;;;17.02;100.00;102171.81;5105637;28;20069;-71
2022/07/05 05:37:23;;;;;;;6.13;3.88;;;;;;;17.07;100.00;102174.56;5105285;28;20054;-71
2022/07/05 05:39:48;;;;;;;4.13;2.83;;;;;;;17.14;100.00;102176.38;5108166;28;20057;-73
2022/07/05 05:42:13;;;;;;;7.35;3.28;;;;;;;17.16;100.00;102170.22;5104977;28;20051;-71
2022/07/05 05:44:39;;;;;;;5.57;3.28;;;;;;;17.22;100.00;102174.69;5104898;28;20028;-72
2022/07/05 05:47:04;;;;;;;5.38;3.00;;;;;;;17.27;100.00;102172.06;5113693;28;20023;-72
2022/07/05 05:49:29;;;;;;;6.50;2.70;;;;;;;17.31;100.00;102168.59;5114746;28;20020;-73
2022/07/05 05:51:55;;;;;;;8.93;2.67;;;;;;;17.34;100.00;102169.50;5110361;28;20040;-71
2022/07/05 05:54:20;;;;;;;8.10;2.40;;;;;;;17.37;100.00;102173.97;5103505;28;20475;-71
2022/07/05 05:56:45;;;;;;;6.85;2.85;;;;;;;17.40;100.00;102171.31;5113725;28;20084;-68
2022/07/05 05:59:11;;;;;;;4.70;2.47;;;;;;;17.43;100.00;102178.44;5111555;28;20031;-67
2022/07/05 06:01:36;;;;;;;6.32;2.35;;;;;;;17.46;100.00;102179.38;5112518;28;20046;-70
2022/07/05 06:04:01;;;;;;;5.63;2.13;;;;;;;17.51;100.00;102182.97;5099320;28;20024;-71
2022/07/05 06:06:27;;;;;;;7.15;2.47;;;;;;;17.57;100.00;102184.81;5079170;28;20106;-70
2022/07/05 06:08:52;;;;;;;3.15;2.05;;;;;;;17.61;100.00;102188.38;5105835;28;20027;-71
2022/07/05 06:11:17;;;;;;;5.55;2.20;;;;;;;17.62;100.00;102192.81;5084875;28;20081;-70
2022/07/05 06:13:43;;;;;;;9.68;2.20;;;;;;;17.64;100.00;102186.63;5109017;28;20027;-71
2022/07/05 06:16:09;;;;;;;3.22;1.52;;;;;;;17.69;100.00;102192.00;5109206;28;20059;-70
2022/07/05 06:18:34;;;;;;;7.43;2.03;;;;;;;17.72;100.00;102193.81;5100750;28;21835;-70
2022/07/05 06:21:00;;;;;;;4.70;2.00;;;;;;;17.70;100.00;102199.09;5103872;28;20569;-72
2022/07/05 06:23:25;;;;;;;8.18;2.47;;;;;;;17.70;100.00;102199.09;5106219;27;20020;-71
2022/07/05 06:25:51;;;;;;;9.00;3.45;;;;;;;17.76;100.00;102200.94;5102015;28;20046;-72
2022/07/05 06:28:16;;;;;;;6.03;3.03;;;;;;;17.81;100.00;102194.78;5106504;28;20020;-71
2022/07/05 06:30:42;;;;;;;10.55;2.80;;;;;;;17.82;100.00;102198.31;5108706;28;20358;-71
2022/07/05 06:33:08;;;;;;;7.30;2.63;;;;;;;17.87;100.00;102212.56;5113136;28;20027;-71
2022/07/05 06:35:34;;;;;;;2.53;1.52;;;;;;;18.01;100.00;102210.03;5109257;28;20378;-71
2022/07/05 06:38:05;;;;;;;7.18;1.20;;;;;;;17.94;100.00;102221.53;5105776;28;20057;-71
2022/07/05 06:40:37;;;;;;;3.20;1.48;;;;;;;17.95;100.00;102210.00;5105181;28;20031;-72
2022/07/05 06:43:05;;;;;;;3.57;1.20;;;;;;;17.99;100.00;102210.03;5109615;28;20505;-72
2022/07/05 06:45:31;;;;;;;4.60;1.05;;;;;;;18.00;100.00;102213.56;5112105;28;20490;-71
2022/07/05 06:47:58;;;;;;;3.90;1.00;;;;;;;18.07;100.00;102218.09;5105283;28;20111;-73
2022/07/05 06:50:28;;;;;;;2.72;0.82;;;;;;;18.06;100.00;102213.63;5109117;28;20031;-72
2022/07/05 06:52:54;;;;;;;2.08;0.90;;;;;;;18.06;100.00;102213.63;5111073;28;20032;-72
2022/07/05 06:55:20;;;;;;;3.33;0.88;;;;;;;18.07;100.00;102219.84;5089703;28;20382;-71
2022/07/05 06:57:45;;;;;;;2.63;0.85;;;;;;;18.08;100.00;102222.53;5103781;28;20023;-71
2022/07/05 07:00:11;;;;;;;5.60;0.85;;;;;;;18.12;100.00;102213.69;5099356;28;20069;-71
2022/07/05 07:02:37;;;;;;;1.83;0.85;;;;;;;18.15;100.00;102216.38;5104236;28;20027;-72
2022/07/05 07:05:03;;;;;;;3.67;0.80;;;;;;;18.16;100.00;102223.50;5099456;28;20483;-71
2022/07/05 07:10:15;;;;;;;2.25;0.93;;;;;;;18.21;97.74;102231.50;5102070;28;20037;-72
2022/07/05 07:12:40;;;;;;;4.70;0.80;;;;;;;18.20;96.60;102227.97;5095744;28;20126;-71
2022/07/05 07:15:06;;;;;;;5.28;0.90;;;;;;;18.31;98.34;102230.69;5104808;28;20028;-72
2022/07/05 07:17:31;;;;;;;2.38;0.68;;;;;;;18.43;99.03;102228.97;5103494;28;20387;-72
2022/07/05 07:19:57;;;;;;;3.35;0.85;;;;;;;18.46;98.49;102229.91;5097770;28;20023;-73
2022/07/05 07:22:22;;;;;;;7.95;1.25;;;;;;;18.40;96.27;102232.50;5109129;28;20031;-71
2022/07/05 07:24:47;;;;;;;4.60;0.80;;;;;;;18.38;97.39;102231.63;5105992;28;20031;-72
2022/07/05 07:27:13;;;;;;;4.80;0.80;;;;;;;18.39;97.84;102238.72;5090810;28;20036;-73
2022/07/05 07:29:39;;;;;;;4.57;0.75;;;;;;;18.44;99.72;102238.75;5093778;28;20030;-72
2022/07/05 07:32:06;;;;;;;2.83;0.70;;;;;;;18.47;99.16;102236.09;5101144;28;20023;-72
2022/07/05 07:34:32;;;;;;;6.65;1.02;;;;;;;18.54;98.65;102244.16;5107329;28;20368;-72
2022/07/05 07:36:57;;;;;;;4.53;0.88;;;;;;;18.58;97.88;102246.84;5084447;28;20077;-72
2022/07/05 07:39:24;;;;;;;2.53;0.70;;;;;;;18.65;98.35;102251.31;5109233;28;20032;-72
2022/07/05 07:41:49;;;;;;;4.50;0.80;;;;;;;18.66;100.00;102245.09;5101607;28;20069;-71
2022/07/05 07:44:15;;;;;;;1.45;0.70;;;;;;;18.65;100.00;102249.56;5098014;28;20036;-71
2022/07/05 07:46:41;;;;;;;2.72;0.95;;;;;;;18.64;100.00;102245.09;5099298;28;20077;-72
2022/07/05 07:49:07;;;;;;;6.30;1.02;;;;;;;18.73;100.00;102246.91;5099148;28;20035;-71
2022/07/05 07:51:32;;;;;;;3.20;0.70;;;;;;;18.85;100.00;102252.31;5098297;28;20066;-72
2022/07/05 07:53:58;;;;;;;2.35;0.80;;;;;;;18.97;100.00;102253.28;5105314;28;20035;-71
2022/07/05 07:56:23;;;;;;;5.38;0.82;;;;;;;18.89;97.92;102249.69;5101726;28;20034;-72
2022/07/05 07:58:49;;;;;;;2.85;0.73;;;;;;;18.91;97.33;102253.25;5101009;28;20027;-72
2022/07/05 08:01:14;;;;;;;3.10;0.80;;;;;;;18.99;97.13;102256.84;5080007;28;20020;-72
2022/07/05 08:03:41;;;;;;;3.15;1.00;;;;;;;19.04;98.02;102256.00;5099907;28;20077;-71
2022/07/05 08:06:08;;;;;;;2.85;0.80;;;;;;;19.15;95.56;102258.72;5098250;28;20020;-72
2022/07/05 08:08:38;;;;;;;2.25;0.90;;;;;;;19.27;95.22;102257.84;5097062;28;20084;-72
2022/07/05 08:11:04;;;;;;;6.88;0.88;;;;;;;19.25;94.09;102258.72;5102421;28;20039;-72
2022/07/05 08:13:29;;;;;;;4.03;1.70;;;;;;;19.35;94.26;102265.88;5095427;28;20032;-72
2022/07/05 08:15:55;;;;;;;3.17;0.90;;;;;;;19.45;95.27;102264.13;5096737;28;20016;-72
2022/07/05 08:23:48;;;;;;;2.90;0.77;;;;;;;19.40;95.53;102264.13;5102821;28;20548;-72
2022/07/05 08:26:13;;;;;;;1.52;0.70;;;;;;;19.46;99.91;102260.56;5107679;28;20027;-72
2022/07/05 08:28:39;;;;;;;5.80;0.90;;;;;;;19.49;97.27;102258.81;5098638;28;20020;-72
2022/07/05 08:31:04;;;;;;;2.72;0.90;;;;;;;19.50;97.21;102260.56;5098914;28;20075;-72
2022/07/05 08:33:30;;;;;;;7.60;0.98;;;;;;;19.47;96.78;102263.22;5099831;28;20034;-72
2022/07/05 08:35:55;;;;;;;3.53;1.30;;;;;;;19.55;100.00;102261.47;5094458;28;20031;-72
2022/07/05 08:38:21;;;;;;;2.15;0.85;;;;;;;19.63;99.68;102261.50;5098324;28;20069;-71
2022/07/05 08:40:51;;;;;;;3.33;1.05;;;;;;;19.71;96.98;102258.84;5106945;28;20099;-72
2022/07/05 08:43:18;;;;;;;2.58;1.20;;;;;;;19.77;96.57;102258.81;5097107;28;20139;-71
2022/07/05 08:45:44;;;;;;;6.85;1.20;;;;;;;19.78;96.23;102255.28;5102407;28;20030;-69
2022/07/05 08:48:10;;;;;;;4.03;0.80;;;;;;;19.93;97.91;102258.88;5107521;28;20110;-72
2022/07/05 08:50:40;;;;;;;4.00;1.05;;;;;;;19.95;92.14;102257.09;5103771;28;20040;-73
2022/07/05 08:53:06;;;;;;;3.38;1.80;;;;;;;19.71;91.38;102258.84;5105627;28;20416;-73
2022/07/05 08:55:34;;;;;;;3.80;0.85;;;;;;;19.97;95.72;102261.56;5090095;28;20124;-73
2022/07/05 08:58:00;;;;;;;6.20;1.20;;;;;;;20.28;98.33;102260.63;5109417;28;20062;-73
2022/07/05 09:00:26;;;;;;;5.93;0.75;;;;;;;20.09;91.19;102260.66;5085031;28;20492;-72
2022/07/05 09:02:52;;;;;;;4.95;1.27;;;;;;;19.85;93.26;102266.91;5101867;28;20024;-73
2022/07/05 09:05:20;;;;;;;5.35;0.88;;;;;;;19.51;96.29;102262.34;5096040;28;20074;-72
2022/07/05 09:07:59;;;;;;;2.72;0.95;;;;;;;19.50;98.41;102286.38;5112998;28;20032;-72
2022/07/05 09:10:30;;;;;;;5.13;0.80;;;;;;;19.67;99.03;102271.28;5097238;28;20084;-71
2022/07/05 09:12:57;;;;;;;3.08;0.95;;;;;;;19.71;98.63;102270.41;5099574;28;20024;-71
2022/07/05 09:15:23;;;;;;;3.13;1.00;;;;;;;19.66;97.56;102266.81;5111699;28;20023;-72
2022/07/05 09:17:48;;;;;;;3.42;0.82;;;;;;;19.63;97.38;102266.84;5113028;28;20024;-72
2022/07/05 09:20:17;;;;;;;5.35;1.20;;;;;;;19.69;97.34;102284.63;5102926;28;20035;-72
2022/07/05 09:22:54;;;;;;;4.65;0.90;;;;;;;19.73;97.32;102278.41;5097792;28;20043;-71
2022/07/05 09:25:21;;;;;;;8.55;1.30;;;;;;;19.76;99.44;102278.41;5107482;28;20020;-72
2022/07/05 09:28:09;;;;;;;5.47;1.05;;;;;;;19.66;96.12;102288.19;5112318;28;20026;-72
2022/07/05 09:30:41;;;;;;;4.55;1.30;;;;;;;19.80;97.33;102290.00;5097126;28;20055;-72
2022/07/05 09:33:17;;;;;;;5.97;1.13;;;;;;;19.78;96.31;102284.66;5100552;28;20023;-72
2022/07/05 09:35:50;;;;;;;5.85;1.10;;;;;;;19.86;100.00;102285.59;5097581;28;20395;-72
2022/07/05 09:38:21;;;;;;;3.65;0.80;;;;;;;19.82;92.13;102288.28;5113289;28;20546;-73
2022/07/05 09:40:50;;;;;;;4.45;1.00;;;;;;;19.89;94.83;102290.03;5109876;28;20023;-71
2022/07/05 09:43:17;;;;;;;5.45;0.88;;;;;;;20.00;95.53;102300.75;5107024;28;20092;-72
2022/07/05 09:46:02;;;;;;;5.85;1.40;;;;;;;20.16;95.94;102310.53;5087598;28;20061;-72
2022/07/05 09:48:30;;;;;;;3.15;1.15;;;;;;;20.36;97.17;102302.53;5077110;28;20032;-72
2022/07/05 09:51:06;;;;;;;5.82;1.08;;;;;;;20.62;91.08;102301.59;5095209;28;20048;-73
2022/07/05 09:53:47;;;;;;;10.52;1.20;;;;;;;20.68;86.86;102306.03;5095339;28;20081;-72
2022/07/05 09:56:13;;;;;;;2.95;0.88;;;;;;;20.75;86.41;102306.94;5095220;28;20024;-72
2022/07/05 09:58:39;;;;;;;2.50;0.90;;;;;;;20.69;87.05;102308.72;5099285;28;20031;-73
2022/07/05 10:01:32;;;;;;;4.32;1.05;;;;;;;20.42;87.37;102301.63;5113900;28;20046;-72
2022/07/05 10:04:01;;;;;;;7.15;1.00;;;;;;;20.48;89.55;102303.38;5096302;28;20016;-71
2022/07/05 10:06:28;;;;;;;4.82;0.80;;;;;;;20.81;88.27;102307.81;5094930;28;20106;-71
2022/07/05 10:08:53;;;;;;;5.28;0.85;;;;;;;20.82;87.20;102306.94;5108324;28;20028;-72
2022/07/05 10:11:20;;;;;;;2.80;0.70;;;;;;;20.83;87.21;102311.38;5105272;28;20076;-71
2022/07/05 10:13:53;;;;;;;2.10;0.82;;;;;;;20.76;84.90;102306.06;5097957;28;20032;-71
2022/07/05 10:16:21;;;;;;;6.15;1.40;;;;;;;20.83;83.81;102308.69;5094671;28;20031;-72
2022/07/05 10:18:54;;;;;;;4.35;1.38;;;;;;;20.86;81.54;102310.47;5102409;28;20027;-71
2022/07/05 10:21:20;;;;;;;3.03;0.80;;;;;;;21.03;90.14;102313.09;5107071;28;20102;-72
2022/07/05 10:23:47;;;;;;;6.03;1.17;;;;;;;21.28;81.68;102307.66;5108945;28;20027;-71
2022/07/05 10:26:14;;;;;;;2.67;0.70;;;;;;;21.09;75.34;102313.06;5094585;28;20063;-72
2022/07/05 10:28:45;;;;;;;3.28;0.80;;;;;;;20.79;75.91;102312.25;5101216;28;20451;-71
2022/07/05 10:31:11;;;;;;;3.58;0.85;;;;;;;20.72;78.88;102310.50;5105816;28;20028;-72
2022/07/05 10:33:38;;;;;;;3.83;0.73;;;;;;;20.92;79.93;102318.50;5108237;28;20160;-71
2022/07/05 10:36:05;;;;;;;6.75;1.45;;;;;;;21.22;81.44;102317.47;5096746;28;20449;-72
2022/07/05 10:38:35;;;;;;;3.00;0.55;;;;;;;21.64;76.28;102324.47;5094692;28;20027;-73
2022/07/05 10:41:04;;;;;;;3.92;0.90;;;;;;;21.88;75.17;102326.97;5096975;28;20036;-71
2022/07/05 10:43:30;;;;;;;2.67;0.65;;;;;;;21.58;72.07;102327.16;5106092;28;20031;-73
2022/07/05 10:45:56;;;;;;;2.45;0.80;;;;;;;21.65;73.51;102328.91;5094137;28;20433;-72
2022/07/05 10:48:26;;;;;;;5.20;0.90;;;;;;;21.51;73.58;102324.50;5098822;28;20027;-72
2022/07/05 10:51:03;;;;;;;2.95;0.50;;;;;;;21.34;76.19;102331.72;5107252;28;20044;-72
2022/07/05 10:53:55;;;;;;;3.53;0.70;;;;;;;21.72;77.12;102333.34;5097007;28;20055;-72
2022/07/05 10:56:21;;;;;;;4.50;1.50;;;;;;;21.73;70.28;102330.66;5094290;28;20388;-72
2022/07/05 10:58:47;;;;;;;2.70;0.70;;;;;;;21.82;70.34;102335.03;5097886;28;20031;-72
2022/07/05 11:01:15;;;;;;;3.47;0.70;;;;;;;21.61;69.16;102329.81;5112096;28;20034;-72
2022/07/05 11:03:44;;;;;;;2.47;0.60;;;;;;;21.07;68.50;102328.25;5104743;28;20031;-71
2022/07/05 11:06:19;;;;;;;10.52;1.23;;;;;;;21.29;67.80;102334.41;5100159;28;20047;-72
2022/07/05 11:08:56;;;;;;;3.05;0.70;;;;;;;21.29;65.97;102329.06;5100374;28;20020;-72
2022/07/05 11:11:30;;;;;;;8.27;0.70;;;;;;;21.46;66.94;102326.31;5106380;28;20053;-71
2022/07/05 11:13:58;;;;;;;1.73;0.50;;;;;;;21.97;67.57;102333.16;5107529;28;20012;-71
2022/07/05 11:16:35;;;;;;;5.20;0.88;;;;;;;22.02;61.57;102332.22;5106882;28;20455;-71
2022/07/05 11:19:06;;;;;;;2.53;0.68;;;;;;;22.48;61.30;102340.84;5108495;28;20035;-69
2022/07/05 11:21:32;;;;;;;2.20;0.75;;;;;;;22.05;58.49;102348.28;5106160;28;20019;-70
2022/07/05 11:24:21;;;;;;;1.75;0.40;;;;;;;22.00;58.36;102341.19;5112741;28;20490;-69
2022/07/05 11:26:52;;;;;;;1.80;0.68;;;;;;;22.15;57.04;102338.41;5100157;28;22658;-70